sensor_id;sensor_type;location;lat;lon;timestamp;P1;durP1;ratioP1;P2;durP2;ratioP2
62071;SDS011;48031;48.542;13.232;2023-03-21T00:00:26;1.40;;;1.20;;
62071;SDS011;48031;48.542;13.232;2023-03-21T00:04:28;1.00;;;0.95;;
62071;SDS011;48031;48.542;13.232;2023-03-21T00:08:44;1.30;;;1.20;;
62071;SDS011;48031;48.542;13.232;2023-03-21T00:12:46;1.40;;;1.30;;
62071;SDS011;48031;48.542;13.232;2023-03-21T00:16:50;1.40;;;1.20;;
62071;SDS011;48031;48.542;13.232;2023-03-21T00:21:01;1.27;;;1.10;;
62071;SDS011;48031;48.542;13.232;2023-03-21T00:25:25;1.40;;;1.20;;
62071;SDS011;48031;48.542;13.232;2023-03-21T00:29:27;1.00;;;1.00;;
62071;SDS011;48031;48.542;13.232;2023-03-21T00:33:29;0.95;;;0.93;;
62071;SDS011;48031;48.542;13.232;2023-03-21T00:37:31;0.90;;;0.90;;
62071;SDS011;48031;48.542;13.232;2023-03-21T00:41:32;1.10;;;1.00;;
62071;SDS011;48031;48.542;13.232;2023-03-21T00:45:44;0.85;;;0.85;;
62071;SDS011;48031;48.542;13.232;2023-03-21T00:49:46;1.10;;;1.00;;
62071;SDS011;48031;48.542;13.232;2023-03-21T00:53:48;1.10;;;1.00;;
62071;SDS011;48031;48.542;13.232;2023-03-21T00:57:50;1.10;;;1.00;;
62071;SDS011;48031;48.542;13.232;2023-03-21T01:02:02;1.05;;;0.95;;
62071;SDS011;48031;48.542;13.232;2023-03-21T01:06:09;1.65;;;1.20;;
62071;SDS011;48031;48.542;13.232;2023-03-21T01:10:13;1.20;;;1.10;;
62071;SDS011;48031;48.542;13.232;2023-03-21T01:14:16;1.10;;;1.10;;
62071;SDS011;48031;48.542;13.232;2023-03-21T01:18:25;1.10;;;1.00;;
62071;SDS011;48031;48.542;13.232;2023-03-21T01:22:28;1.20;;;1.10;;
62071;SDS011;48031;48.542;13.232;2023-03-21T01:26:30;1.20;;;1.10;;
62071;SDS011;48031;48.542;13.232;2023-03-21T01:30:32;1.15;;;1.08;;
62071;SDS011;48031;48.542;13.232;2023-03-21T01:34:41;1.00;;;1.00;;
62071;SDS011;48031;48.542;13.232;2023-03-21T01:38:43;1.40;;;1.30;;
62071;SDS011;48031;48.542;13.232;2023-03-21T01:42:46;1.30;;;1.20;;
62071;SDS011;48031;48.542;13.232;2023-03-21T01:46:49;1.00;;;1.00;;
62071;SDS011;48031;48.542;13.232;2023-03-21T01:51:18;1.30;;;1.02;;
62071;SDS011;48031;48.542;13.232;2023-03-21T01:55:29;1.35;;;1.25;;
62071;SDS011;48031;48.542;13.232;2023-03-21T01:59:52;1.30;;;1.20;;
62071;SDS011;48031;48.542;13.232;2023-03-21T02:04:13;1.48;;;1.30;;
62071;SDS011;48031;48.542;13.232;2023-03-21T02:08:25;2.45;;;1.70;;
62071;SDS011;48031;48.542;13.232;2023-03-21T02:12:44;1.23;;;1.15;;
62071;SDS011;48031;48.542;13.232;2023-03-21T02:16:47;1.30;;;1.20;;
62071;SDS011;48031;48.542;13.232;2023-03-21T02:38:51;1.40;;;1.30;;
62071;SDS011;48031;48.542;13.232;2023-03-21T02:51:42;1.00;;;0.90;;
62071;SDS011;48031;48.542;13.232;2023-03-21T02:55:46;1.27;;;1.17;;
62071;SDS011;48031;48.542;13.232;2023-03-21T02:59:50;0.90;;;0.90;;
62071;SDS011;48031;48.542;13.232;2023-03-21T03:04:16;1.20;;;1.10;;
62071;SDS011;48031;48.542;13.232;2023-03-21T03:25:44;1.13;;;1.02;;
62071;SDS011;48031;48.542;13.232;2023-03-21T03:29:52;1.20;;;1.10;;
62071;SDS011;48031;48.542;13.232;2023-03-21T03:34:01;1.33;;;1.23;;
62071;SDS011;48031;48.542;13.232;2023-03-21T03:38:11;1.15;;;1.10;;
62071;SDS011;48031;48.542;13.232;2023-03-21T03:42:19;1.50;;;1.40;;
62071;SDS011;48031;48.542;13.232;2023-03-21T03:46:51;1.25;;;1.17;;
62071;SDS011;48031;48.542;13.232;2023-03-21T03:51:00;1.30;;;1.20;;
62071;SDS011;48031;48.542;13.232;2023-03-21T03:55:26;1.50;;;1.40;;
62071;SDS011;48031;48.542;13.232;2023-03-21T03:59:42;1.88;;;1.52;;
62071;SDS011;48031;48.542;13.232;2023-03-21T04:03:51;1.50;;;1.40;;
62071;SDS011;48031;48.542;13.232;2023-03-21T04:08:07;1.50;;;1.40;;
62071;SDS011;48031;48.542;13.232;2023-03-21T04:12:15;1.70;;;1.60;;
62071;SDS011;48031;48.542;13.232;2023-03-21T04:16:33;1.63;;;1.52;;
62071;SDS011;48031;48.542;13.232;2023-03-21T04:20:37;2.63;;;2.00;;
62071;SDS011;48031;48.542;13.232;2023-03-21T04:24:40;1.67;;;1.55;;
62071;SDS011;48031;48.542;13.232;2023-03-21T04:28:43;2.53;;;1.70;;
62071;SDS011;48031;48.542;13.232;2023-03-21T04:33:08;2.97;;;1.60;;
62071;SDS011;48031;48.542;13.232;2023-03-21T04:37:12;1.42;;;1.33;;
62071;SDS011;48031;48.542;13.232;2023-03-21T04:41:16;1.48;;;1.38;;
62071;SDS011;48031;48.542;13.232;2023-03-21T04:45:18;1.52;;;1.40;;
62071;SDS011;48031;48.542;13.232;2023-03-21T04:49:21;1.40;;;1.30;;
62071;SDS011;48031;48.542;13.232;2023-03-21T04:53:23;1.23;;;1.15;;
62071;SDS011;48031;48.542;13.232;2023-03-21T04:57:26;1.45;;;1.20;;
62071;SDS011;48031;48.542;13.232;2023-03-21T05:01:29;1.20;;;1.10;;
62071;SDS011;48031;48.542;13.232;2023-03-21T05:05:31;1.55;;;1.30;;
62071;SDS011;48031;48.542;13.232;2023-03-21T05:09:34;1.50;;;1.40;;
62071;SDS011;48031;48.542;13.232;2023-03-21T05:13:36;1.33;;;1.23;;
62071;SDS011;48031;48.542;13.232;2023-03-21T05:17:39;1.38;;;1.27;;
62071;SDS011;48031;48.542;13.232;2023-03-21T05:21:44;1.48;;;1.38;;
62071;SDS011;48031;48.542;13.232;2023-03-21T05:25:50;1.60;;;1.50;;
62071;SDS011;48031;48.542;13.232;2023-03-21T05:30:11;1.92;;;1.60;;
62071;SDS011;48031;48.542;13.232;2023-03-21T05:34:15;1.52;;;1.40;;
62071;SDS011;48031;48.542;13.232;2023-03-21T05:38:18;1.42;;;1.23;;
62071;SDS011;48031;48.542;13.232;2023-03-21T05:42:24;1.60;;;1.50;;
62071;SDS011;48031;48.542;13.232;2023-03-21T05:46:28;1.88;;;1.40;;
62071;SDS011;48031;48.542;13.232;2023-03-21T05:50:30;1.30;;;1.20;;
62071;SDS011;48031;48.542;13.232;2023-03-21T05:54:51;1.40;;;1.30;;
62071;SDS011;48031;48.542;13.232;2023-03-21T05:58:56;1.90;;;1.45;;
62071;SDS011;48031;48.542;13.232;2023-03-21T06:02:59;1.52;;;1.42;;
62071;SDS011;48031;48.542;13.232;2023-03-21T06:07:30;1.50;;;1.40;;
62071;SDS011;48031;48.542;13.232;2023-03-21T06:11:36;1.50;;;1.40;;
62071;SDS011;48031;48.542;13.232;2023-03-21T06:15:57;1.50;;;1.40;;
62071;SDS011;48031;48.542;13.232;2023-03-21T06:19:59;2.88;;;2.00;;
62071;SDS011;48031;48.542;13.232;2023-03-21T06:24:09;2.42;;;2.08;;
62071;SDS011;48031;48.542;13.232;2023-03-21T06:28:15;2.13;;;1.80;;
62071;SDS011;48031;48.542;13.232;2023-03-21T06:32:17;1.63;;;1.50;;
62071;SDS011;48031;48.542;13.232;2023-03-21T06:36:21;1.95;;;1.70;;
62071;SDS011;48031;48.542;13.232;2023-03-21T06:40:23;2.75;;;2.20;;
62071;SDS011;48031;48.542;13.232;2023-03-21T06:44:26;2.80;;;2.10;;
62071;SDS011;48031;48.542;13.232;2023-03-21T06:48:35;2.33;;;2.10;;
62071;SDS011;48031;48.542;13.232;2023-03-21T06:52:38;2.25;;;1.90;;
62071;SDS011;48031;48.542;13.232;2023-03-21T06:56:40;2.40;;;2.20;;
62071;SDS011;48031;48.542;13.232;2023-03-21T07:00:45;1.88;;;1.75;;
62071;SDS011;48031;48.542;13.232;2023-03-21T07:04:47;3.10;;;2.08;;
62071;SDS011;48031;48.542;13.232;2023-03-21T07:08:54;3.00;;;2.50;;
62071;SDS011;48031;48.542;13.232;2023-03-21T07:12:58;2.38;;;2.05;;
62071;SDS011;48031;48.542;13.232;2023-03-21T07:17:17;3.30;;;2.72;;
62071;SDS011;48031;48.542;13.232;2023-03-21T07:21:19;3.72;;;3.28;;
62071;SDS011;48031;48.542;13.232;2023-03-21T07:25:21;3.90;;;2.55;;
62071;SDS011;48031;48.542;13.232;2023-03-21T07:29:23;2.88;;;2.53;;
62071;SDS011;48031;48.542;13.232;2023-03-21T07:33:26;2.90;;;2.60;;
62071;SDS011;48031;48.542;13.232;2023-03-21T07:37:32;2.80;;;2.35;;
62071;SDS011;48031;48.542;13.232;2023-03-21T07:41:34;3.40;;;2.78;;
62071;SDS011;48031;48.542;13.232;2023-03-21T07:45:47;5.60;;;3.47;;
62071;SDS011;48031;48.542;13.232;2023-03-21T07:49:49;3.70;;;3.00;;
62071;SDS011;48031;48.542;13.232;2023-03-21T07:53:52;3.65;;;2.63;;
62071;SDS011;48031;48.542;13.232;2023-03-21T07:57:54;4.85;;;3.88;;
62071;SDS011;48031;48.542;13.232;2023-03-21T08:01:56;5.95;;;4.28;;
62071;SDS011;48031;48.542;13.232;2023-03-21T08:05:59;7.65;;;5.32;;
62071;SDS011;48031;48.542;13.232;2023-03-21T08:10:04;6.70;;;5.10;;
62071;SDS011;48031;48.542;13.232;2023-03-21T08:14:06;4.50;;;3.85;;
62071;SDS011;48031;48.542;13.232;2023-03-21T08:18:08;4.85;;;3.58;;
62071;SDS011;48031;48.542;13.232;2023-03-21T08:22:10;4.80;;;3.45;;
62071;SDS011;48031;48.542;13.232;2023-03-21T08:26:12;6.10;;;5.00;;
62071;SDS011;48031;48.542;13.232;2023-03-21T08:30:22;6.43;;;4.60;;
62071;SDS011;48031;48.542;13.232;2023-03-21T08:34:26;4.45;;;3.45;;
62071;SDS011;48031;48.542;13.232;2023-03-21T08:38:28;9.48;;;5.53;;
62071;SDS011;48031;48.542;13.232;2023-03-21T08:42:32;8.20;;;4.60;;
62071;SDS011;48031;48.542;13.232;2023-03-21T08:46:34;6.05;;;4.55;;
62071;SDS011;48031;48.542;13.232;2023-03-21T08:50:35;7.40;;;5.28;;
62071;SDS011;48031;48.542;13.232;2023-03-21T08:54:37;9.18;;;5.60;;
62071;SDS011;48031;48.542;13.232;2023-03-21T08:58:41;7.40;;;5.25;;
62071;SDS011;48031;48.542;13.232;2023-03-21T09:02:43;6.88;;;4.10;;
62071;SDS011;48031;48.542;13.232;2023-03-21T09:06:47;7.53;;;5.00;;
62071;SDS011;48031;48.542;13.232;2023-03-21T09:10:52;8.35;;;4.90;;
62071;SDS011;48031;48.542;13.232;2023-03-21T09:14:55;8.50;;;5.22;;
62071;SDS011;48031;48.542;13.232;2023-03-21T09:18:57;6.30;;;5.03;;
62071;SDS011;48031;48.542;13.232;2023-03-21T09:22:59;6.40;;;4.72;;
62071;SDS011;48031;48.542;13.232;2023-03-21T09:27:02;5.97;;;4.40;;
62071;SDS011;48031;48.542;13.232;2023-03-21T09:31:04;7.18;;;4.90;;
62071;SDS011;48031;48.542;13.232;2023-03-21T09:35:08;4.82;;;3.60;;
62071;SDS011;48031;48.542;13.232;2023-03-21T09:39:11;5.25;;;4.18;;
62071;SDS011;48031;48.542;13.232;2023-03-21T09:43:17;5.72;;;3.22;;
62071;SDS011;48031;48.542;13.232;2023-03-21T09:47:24;5.82;;;3.65;;
62071;SDS011;48031;48.542;13.232;2023-03-21T09:51:34;3.83;;;3.10;;
62071;SDS011;48031;48.542;13.232;2023-03-21T09:55:40;4.75;;;3.47;;
62071;SDS011;48031;48.542;13.232;2023-03-21T09:59:43;4.90;;;3.55;;
62071;SDS011;48031;48.542;13.232;2023-03-21T10:03:44;4.05;;;3.55;;
62071;SDS011;48031;48.542;13.232;2023-03-21T10:08:04;5.28;;;2.85;;
62071;SDS011;48031;48.542;13.232;2023-03-21T10:12:19;4.78;;;3.17;;
62071;SDS011;48031;48.542;13.232;2023-03-21T10:16:29;3.65;;;2.70;;
62071;SDS011;48031;48.542;13.232;2023-03-21T10:20:35;4.28;;;3.17;;
62071;SDS011;48031;48.542;13.232;2023-03-21T10:24:38;4.75;;;3.88;;
62071;SDS011;48031;48.542;13.232;2023-03-21T10:28:40;3.67;;;3.00;;
62071;SDS011;48031;48.542;13.232;2023-03-21T10:33:05;3.38;;;2.97;;
62071;SDS011;48031;48.542;13.232;2023-03-21T10:37:10;4.33;;;3.50;;
62071;SDS011;48031;48.542;13.232;2023-03-21T10:41:13;3.30;;;2.65;;
62071;SDS011;48031;48.542;13.232;2023-03-21T10:45:16;3.03;;;2.10;;
62071;SDS011;48031;48.542;13.232;2023-03-21T10:49:20;2.80;;;2.60;;
62071;SDS011;48031;48.542;13.232;2023-03-21T10:53:28;4.15;;;3.13;;
62071;SDS011;48031;48.542;13.232;2023-03-21T10:57:32;3.83;;;3.00;;
62071;SDS011;48031;48.542;13.232;2023-03-21T11:01:39;2.60;;;2.40;;
62071;SDS011;48031;48.542;13.232;2023-03-21T11:05:44;3.78;;;3.33;;
62071;SDS011;48031;48.542;13.232;2023-03-21T11:09:48;2.75;;;2.55;;
62071;SDS011;48031;48.542;13.232;2023-03-21T11:13:59;3.50;;;3.03;;
62071;SDS011;48031;48.542;13.232;2023-03-21T11:18:18;3.10;;;2.80;;
62071;SDS011;48031;48.542;13.232;2023-03-21T11:22:22;2.30;;;2.10;;
62071;SDS011;48031;48.542;13.232;2023-03-21T11:26:27;2.53;;;2.33;;
62071;SDS011;48031;48.542;13.232;2023-03-21T11:30:33;1.90;;;1.80;;
62071;SDS011;48031;48.542;13.232;2023-03-21T11:38:51;3.05;;;2.35;;
62071;SDS011;48031;48.542;13.232;2023-03-21T11:44:40;2.67;;;2.47;;
62071;SDS011;48031;48.542;13.232;2023-03-21T11:48:45;2.42;;;1.80;;
62071;SDS011;48031;48.542;13.232;2023-03-21T11:52:52;2.42;;;2.20;;
62071;SDS011;48031;48.542;13.232;2023-03-21T11:57:22;2.60;;;2.17;;
62071;SDS011;48031;48.542;13.232;2023-03-21T12:05:59;1.95;;;1.77;;
62071;SDS011;48031;48.542;13.232;2023-03-21T12:14:40;2.20;;;1.83;;
62071;SDS011;48031;48.542;13.232;2023-03-21T12:34:21;2.67;;;2.47;;
62071;SDS011;48031;48.542;13.232;2023-03-21T13:33:24;1.58;;;1.48;;
62071;SDS011;48031;48.542;13.232;2023-03-21T13:38:37;2.03;;;1.83;;
62071;SDS011;48031;48.542;13.232;2023-03-21T13:49:32;2.88;;;2.60;;
62071;SDS011;48031;48.542;13.232;2023-03-21T13:55:01;2.50;;;2.30;;
62071;SDS011;48031;48.542;13.232;2023-03-21T14:04:28;2.35;;;2.13;;
62071;SDS011;48031;48.542;13.232;2023-03-21T14:08:44;2.17;;;1.98;;
62071;SDS011;48031;48.542;13.232;2023-03-21T14:12:57;3.35;;;3.15;;
62071;SDS011;48031;48.542;13.232;2023-03-21T14:17:14;3.55;;;3.33;;
62071;SDS011;48031;48.542;13.232;2023-03-21T14:25:53;1.60;;;1.50;;
62071;SDS011;48031;48.542;13.232;2023-03-21T14:29:57;1.40;;;1.20;;
62071;SDS011;48031;48.542;13.232;2023-03-21T14:34:01;1.73;;;1.40;;
62071;SDS011;48031;48.542;13.232;2023-03-21T14:38:04;2.42;;;1.83;;
62071;SDS011;48031;48.542;13.232;2023-03-21T14:42:11;3.67;;;2.85;;
62071;SDS011;48031;48.542;13.232;2023-03-21T14:50:38;3.50;;;3.30;;
62071;SDS011;48031;48.542;13.232;2023-03-21T14:55:31;2.97;;;1.70;;
62071;SDS011;48031;48.542;13.232;2023-03-21T15:00:27;2.60;;;2.40;;
62071;SDS011;48031;48.542;13.232;2023-03-21T15:04:31;2.30;;;1.70;;
62071;SDS011;48031;48.542;13.232;2023-03-21T15:08:33;2.30;;;2.10;;
62071;SDS011;48031;48.542;13.232;2023-03-21T15:12:37;2.45;;;2.25;;
62071;SDS011;48031;48.542;13.232;2023-03-21T15:16:39;3.15;;;2.45;;
62071;SDS011;48031;48.542;13.232;2023-03-21T15:20:42;2.60;;;2.40;;
62071;SDS011;48031;48.542;13.232;2023-03-21T15:24:49;2.30;;;2.10;;
62071;SDS011;48031;48.542;13.232;2023-03-21T15:28:55;1.70;;;1.60;;
62071;SDS011;48031;48.542;13.232;2023-03-21T15:33:07;1.92;;;1.80;;
62071;SDS011;48031;48.542;13.232;2023-03-21T15:37:15;2.15;;;2.00;;
62071;SDS011;48031;48.542;13.232;2023-03-21T15:45:24;2.75;;;2.17;;
62071;SDS011;48031;48.542;13.232;2023-03-21T15:49:31;1.85;;;1.70;;
62071;SDS011;48031;48.542;13.232;2023-03-21T15:53:35;1.45;;;1.35;;
62071;SDS011;48031;48.542;13.232;2023-03-21T15:57:38;1.60;;;1.50;;
62071;SDS011;48031;48.542;13.232;2023-03-21T16:01:48;2.50;;;1.80;;
62071;SDS011;48031;48.542;13.232;2023-03-21T16:10:06;1.73;;;1.63;;
62071;SDS011;48031;48.542;13.232;2023-03-21T16:14:44;1.65;;;1.50;;
62071;SDS011;48031;48.542;13.232;2023-03-21T16:18:48;2.45;;;1.65;;
62071;SDS011;48031;48.542;13.232;2023-03-21T16:22:51;1.40;;;1.30;;
62071;SDS011;48031;48.542;13.232;2023-03-21T16:26:53;1.83;;;1.73;;
62071;SDS011;48031;48.542;13.232;2023-03-21T16:30:56;1.40;;;1.30;;
62071;SDS011;48031;48.542;13.232;2023-03-21T16:34:59;1.20;;;1.10;;
62071;SDS011;48031;48.542;13.232;2023-03-21T16:39:03;1.17;;;1.08;;
62071;SDS011;48031;48.542;13.232;2023-03-21T16:43:15;1.83;;;1.23;;
62071;SDS011;48031;48.542;13.232;2023-03-21T16:47:18;2.00;;;1.40;;
62071;SDS011;48031;48.542;13.232;2023-03-21T16:51:24;1.90;;;1.50;;
62071;SDS011;48031;48.542;13.232;2023-03-21T16:55:30;2.08;;;1.42;;
62071;SDS011;48031;48.542;13.232;2023-03-21T16:59:35;1.13;;;1.02;;
62071;SDS011;48031;48.542;13.232;2023-03-21T17:03:38;2.20;;;1.48;;
62071;SDS011;48031;48.542;13.232;2023-03-21T17:07:41;1.50;;;1.10;;
62071;SDS011;48031;48.542;13.232;2023-03-21T17:11:44;3.08;;;1.23;;
62071;SDS011;48031;48.542;13.232;2023-03-21T17:15:46;1.30;;;1.00;;
62071;SDS011;48031;48.542;13.232;2023-03-21T17:19:48;0.80;;;0.80;;
62071;SDS011;48031;48.542;13.232;2023-03-21T17:23:50;0.80;;;0.80;;
62071;SDS011;48031;48.542;13.232;2023-03-21T17:27:52;0.93;;;0.93;;
62071;SDS011;48031;48.542;13.232;2023-03-21T17:31:54;1.00;;;0.90;;
62071;SDS011;48031;48.542;13.232;2023-03-21T17:35:56;1.48;;;1.20;;
62071;SDS011;48031;48.542;13.232;2023-03-21T17:39:58;2.00;;;1.40;;
62071;SDS011;48031;48.542;13.232;2023-03-21T17:44:00;2.22;;;1.70;;
62071;SDS011;48031;48.542;13.232;2023-03-21T17:48:02;1.45;;;1.35;;
62071;SDS011;48031;48.542;13.232;2023-03-21T17:52:04;1.70;;;1.60;;
62071;SDS011;48031;48.542;13.232;2023-03-21T17:56:09;1.65;;;1.40;;
62071;SDS011;48031;48.542;13.232;2023-03-21T18:00:23;1.50;;;1.40;;
62071;SDS011;48031;48.542;13.232;2023-03-21T18:04:27;2.33;;;1.10;;
62071;SDS011;48031;48.542;13.232;2023-03-21T18:08:29;1.60;;;1.40;;
62071;SDS011;48031;48.542;13.232;2023-03-21T18:12:31;1.95;;;1.70;;
62071;SDS011;48031;48.542;13.232;2023-03-21T18:16:33;2.72;;;1.83;;
62071;SDS011;48031;48.542;13.232;2023-03-21T18:20:35;1.50;;;1.40;;
62071;SDS011;48031;48.542;13.232;2023-03-21T18:24:55;1.42;;;1.23;;
62071;SDS011;48031;48.542;13.232;2023-03-21T18:28:58;2.25;;;1.55;;
62071;SDS011;48031;48.542;13.232;2023-03-21T18:33:19;2.10;;;1.60;;
62071;SDS011;48031;48.542;13.232;2023-03-21T18:37:21;2.17;;;1.80;;
62071;SDS011;48031;48.542;13.232;2023-03-21T18:41:24;1.70;;;1.50;;
62071;SDS011;48031;48.542;13.232;2023-03-21T18:45:26;3.05;;;1.60;;
62071;SDS011;48031;48.542;13.232;2023-03-21T18:49:28;2.20;;;1.55;;
62071;SDS011;48031;48.542;13.232;2023-03-21T18:53:50;2.65;;;1.80;;
62071;SDS011;48031;48.542;13.232;2023-03-21T18:57:53;2.13;;;1.40;;
62071;SDS011;48031;48.542;13.232;2023-03-21T19:01:57;1.73;;;1.50;;
62071;SDS011;48031;48.542;13.232;2023-03-21T19:05:59;1.90;;;1.50;;
62071;SDS011;48031;48.542;13.232;2023-03-21T19:10:01;2.65;;;2.00;;
62071;SDS011;48031;48.542;13.232;2023-03-21T19:14:18;2.28;;;1.95;;
62071;SDS011;48031;48.542;13.232;2023-03-21T19:18:21;3.45;;;2.30;;
62071;SDS011;48031;48.542;13.232;2023-03-21T19:22:44;2.30;;;1.98;;
62071;SDS011;48031;48.542;13.232;2023-03-21T19:26:46;3.20;;;2.40;;
62071;SDS011;48031;48.542;13.232;2023-03-21T19:30:48;3.33;;;2.38;;
62071;SDS011;48031;48.542;13.232;2023-03-21T19:34:51;3.85;;;2.72;;
62071;SDS011;48031;48.542;13.232;2023-03-21T19:38:53;3.90;;;2.53;;
62071;SDS011;48031;48.542;13.232;2023-03-21T19:42:55;2.80;;;2.25;;
62071;SDS011;48031;48.542;13.232;2023-03-21T19:46:58;2.75;;;2.25;;
62071;SDS011;48031;48.542;13.232;2023-03-21T19:51:00;3.55;;;2.35;;
62071;SDS011;48031;48.542;13.232;2023-03-21T19:55:23;3.92;;;3.08;;
62071;SDS011;48031;48.542;13.232;2023-03-21T19:59:25;3.60;;;2.45;;
62071;SDS011;48031;48.542;13.232;2023-03-21T20:03:27;3.40;;;1.98;;
62071;SDS011;48031;48.542;13.232;2023-03-21T20:07:29;2.97;;;2.38;;
62071;SDS011;48031;48.542;13.232;2023-03-21T20:11:33;2.30;;;2.00;;
62071;SDS011;48031;48.542;13.232;2023-03-21T20:15:35;2.78;;;2.10;;
62071;SDS011;48031;48.542;13.232;2023-03-21T20:19:48;2.65;;;2.00;;
62071;SDS011;48031;48.542;13.232;2023-03-21T20:23:50;3.03;;;1.75;;
62071;SDS011;48031;48.542;13.232;2023-03-21T20:27:52;2.47;;;1.85;;
62071;SDS011;48031;48.542;13.232;2023-03-21T20:32:14;3.63;;;2.03;;
62071;SDS011;48031;48.542;13.232;2023-03-21T20:36:16;3.28;;;1.80;;
62071;SDS011;48031;48.542;13.232;2023-03-21T20:40:38;2.25;;;1.67;;
62071;SDS011;48031;48.542;13.232;2023-03-21T20:44:41;3.03;;;1.90;;
62071;SDS011;48031;48.542;13.232;2023-03-21T20:48:59;1.70;;;1.40;;
62071;SDS011;48031;48.542;13.232;2023-03-21T20:53:01;1.95;;;1.60;;
62071;SDS011;48031;48.542;13.232;2023-03-21T20:57:08;2.35;;;1.90;;
62071;SDS011;48031;48.542;13.232;2023-03-21T21:01:10;2.10;;;1.52;;
62071;SDS011;48031;48.542;13.232;2023-03-21T21:05:16;1.92;;;1.58;;
62071;SDS011;48031;48.542;13.232;2023-03-21T21:09:32;1.52;;;1.20;;
62071;SDS011;48031;48.542;13.232;2023-03-21T21:13:34;1.75;;;1.60;;
62071;SDS011;48031;48.542;13.232;2023-03-21T21:17:36;1.70;;;1.50;;
62071;SDS011;48031;48.542;13.232;2023-03-21T21:21:58;2.13;;;1.65;;
62071;SDS011;48031;48.542;13.232;2023-03-21T21:26:00;1.60;;;1.50;;
62071;SDS011;48031;48.542;13.232;2023-03-21T21:30:02;2.15;;;1.30;;
62071;SDS011;48031;48.542;13.232;2023-03-21T21:34:04;1.63;;;1.45;;
62071;SDS011;48031;48.542;13.232;2023-03-21T21:38:06;2.05;;;1.42;;
62071;SDS011;48031;48.542;13.232;2023-03-21T21:42:08;1.42;;;1.33;;
62071;SDS011;48031;48.542;13.232;2023-03-21T21:46:11;1.70;;;1.50;;
62071;SDS011;48031;48.542;13.232;2023-03-21T21:50:13;1.85;;;1.50;;
62071;SDS011;48031;48.542;13.232;2023-03-21T21:54:15;1.80;;;1.55;;
62071;SDS011;48031;48.542;13.232;2023-03-21T21:58:19;1.75;;;1.50;;
62071;SDS011;48031;48.542;13.232;2023-03-21T22:02:21;1.50;;;1.40;;
62071;SDS011;48031;48.542;13.232;2023-03-21T22:06:27;1.42;;;1.30;;
62071;SDS011;48031;48.542;13.232;2023-03-21T22:10:29;1.50;;;1.40;;
62071;SDS011;48031;48.542;13.232;2023-03-21T22:14:32;1.88;;;1.50;;
62071;SDS011;48031;48.542;13.232;2023-03-21T22:18:34;1.42;;;1.33;;
62071;SDS011;48031;48.542;13.232;2023-03-21T22:22:39;1.63;;;1.33;;
62071;SDS011;48031;48.542;13.232;2023-03-21T22:26:41;2.53;;;1.70;;
62071;SDS011;48031;48.542;13.232;2023-03-21T22:30:43;4.00;;;3.22;;
62071;SDS011;48031;48.542;13.232;2023-03-21T22:34:45;4.15;;;2.95;;
62071;SDS011;48031;48.542;13.232;2023-03-21T22:38:46;3.63;;;2.53;;
62071;SDS011;48031;48.542;13.232;2023-03-21T22:42:48;2.28;;;1.85;;
62071;SDS011;48031;48.542;13.232;2023-03-21T22:46:50;2.28;;;1.80;;
62071;SDS011;48031;48.542;13.232;2023-03-21T22:50:52;2.30;;;1.55;;
62071;SDS011;48031;48.542;13.232;2023-03-21T22:54:54;1.60;;;1.30;;
62071;SDS011;48031;48.542;13.232;2023-03-21T22:58:56;4.20;;;1.75;;
62071;SDS011;48031;48.542;13.232;2023-03-21T23:03:00;2.15;;;1.80;;
62071;SDS011;48031;48.542;13.232;2023-03-21T23:07:02;2.17;;;1.83;;
62071;SDS011;48031;48.542;13.232;2023-03-21T23:11:07;2.08;;;1.80;;
62071;SDS011;48031;48.542;13.232;2023-03-21T23:15:10;2.20;;;1.88;;
62071;SDS011;48031;48.542;13.232;2023-03-21T23:19:11;2.83;;;1.70;;
62071;SDS011;48031;48.542;13.232;2023-03-21T23:23:14;1.65;;;1.45;;
62071;SDS011;48031;48.542;13.232;2023-03-21T23:27:17;2.40;;;2.08;;
62071;SDS011;48031;48.542;13.232;2023-03-21T23:31:20;2.10;;;1.75;;
62071;SDS011;48031;48.542;13.232;2023-03-21T23:35:23;2.30;;;2.05;;
62071;SDS011;48031;48.542;13.232;2023-03-21T23:39:26;1.70;;;1.60;;
62071;SDS011;48031;48.542;13.232;2023-03-21T23:43:28;2.15;;;1.70;;
62071;SDS011;48031;48.542;13.232;2023-03-21T23:47:30;2.88;;;1.90;;
62071;SDS011;48031;48.542;13.232;2023-03-21T23:51:32;2.17;;;1.75;;
62071;SDS011;48031;48.542;13.232;2023-03-21T23:55:35;2.63;;;1.73;;
62071;SDS011;48031;48.542;13.232;2023-03-21T23:59:39;2.35;;;1.80;;
